Международный

Карта отелей и гостиниц, располагающихся рядом с аэропортом Международный :

Международный
Львов
Львовская область 49° 48' 34.8012" N, 23° 57' 30.5388" E
Код аэродрома ИКАО
UKLL
Код аэродрома RU
УКЛЛ
Координаты
N49.80967° E023.95848°
Превышение над уровнем моря
328
Основная полоса
13/31
Курс магнитный
130,2/310,2
Длина основной ВПП
3346
Ширина основной ВПП
45
Покрытие основной ВПП
Твёрдое (цементобетон)
Освещение ВПП
Постоянное
Тип: 
Аэродром
Принадлежность: 
ГА
Статус: 
Действующий
Сайт: 
http://www.airport.lviv.ua/
Страна: 
Украина
Регион: 
Львовская область
Город: 
Львов
Дополнительная информация: 
Гражданская авиационная администрация. Ранее АД назывался "Скнилов".
Погода: 

Авиационная погода в аэропорту Международный

Регион: 
Погода METAR: 
UKLL 271200Z 30005MPS 9999 OVC015 04/01 Q1025 R31/190065 NOSIG
Время наблюдения
2021-02-27T12:00:00Z
Температура C
4.0
Точка росы
1.0
Направление ветра
300
Скорость ветра (узлы)
10
Метео видимость
6.21
Явления погоды
Условия полета
MVFR
Аэропорт подробнее: 

Найти трансфер

С помощью этой формы Вы можете найти трансфер из аэропорта Международный в город, аэропорт или вокзал:

Карта места

Javascript is required to view this map.

Погода в аэропортах:

Авиационная погода в Ульяновске

Регион: 
Погода METAR: 
UWLW 271200Z 01007MPS 2400 -SN OVC006 M09/M10 Q0998 R20/490535 NOSIG RMK QFE743
Время наблюдения
2021-02-27T12:00:00Z
Температура C
-9.0
Точка росы
-10.0
Направление ветра
10
Скорость ветра (узлы)
14
Метео видимость
1.49
Явления погоды
-SN
Условия полета
IFR
Аэропорт подробнее: 

Авиационная погода в Емельяново

Регион: 
Погода METAR: 
UNKL 271200Z 26002MPS 5000 -SN SCT027 M19/M23 Q1029 R29/450245 NOSIG RMK QFE746
Время наблюдения
2021-02-27T12:00:00Z
Температура C
-19.0
Точка росы
-23.0
Направление ветра
260
Скорость ветра (узлы)
4
Метео видимость
3.11
Явления погоды
-SN
Условия полета
MVFR
Аэропорт подробнее: 

Авиационная погода в Магнитогорске

Погода METAR: 
USCM 271200Z 33006MPS 2300 -SN VV010 M22/M25 Q1007 R18/490535 TEMPO 0500 +SN VV002 RMK QFE718
Время наблюдения
2021-02-27T12:00:00Z
Температура C
-22.0
Точка росы
-25.0
Направление ветра
330
Скорость ветра (узлы)
12
Метео видимость
1.43
Явления погоды
-SN
Условия полета
LIFR
Аэропорт подробнее: 

Авиационная погода в Актобе

Регион: 
Погода METAR: 
UATT 271200Z 19010MPS 7000 -SN BLSN OVC009 M05/M07 Q1005 R12/451045 NOSIG RMK QFE734/0979
Время наблюдения
2021-02-27T12:00:00Z
Температура C
-5.0
Точка росы
-7.0
Направление ветра
190
Скорость ветра (узлы)
19
Метео видимость
4.35
Явления погоды
-SN BLSN
Условия полета
IFR
Аэропорт подробнее: